Details From KCLM - William R Fairchild Intl
To KNUW - Whidbey Island Nas
Flight Number -
Tags Generated
Created
Modified
Stats Distance 37 nm / 68 km
Max Altitude 0 ft / 0 m
Waypoints 2
Social Downloads 1
Likes 0
Share VATSIM

Download

Looking for another format? Having issues loading an existing format? Contact us
Advertisement - Login to hide

Notes

Generated

Route

KCLM KNUW

ID Type Via Altitude Latitude Longitude Leg Dist Tot Dist Heading (true) Name
O KCLM APT - 0 ft / 0 m 48.12657˚ -123.50476˚ - 0 nm - -
O KNUW APT - 0 ft / 0 m 48.36167˚ -122.66246˚ 36 nm 36 nm 67° / 68° -

Altitude Profile

Advertisement - Login to hide

KCLM

Details ICAO KCLM (CLM)
Name WILLIAM R FAIRCHILD INTL
Region United States
Timezone America/Los_Angeles (UTC-7.0)
Stats Elevation 291 ft / 89 m (AMSL)
Location 48.120829° -123.500070°
Runways 2
Magnetic Variation 15.988° E

METAR

KCLM 242153Z AUTO 32011G19KT 10SM CLR 14/09 A3008 RMK AO2 SLP187 T01440094

Decode

TAF

KCLM 242104Z 2421/2518 30010KT P6SM SKC FM251400 29008KT P6SM SCT008

Decode

Departure Runways

ID Width Length Bearing (true) Bearing (mag) Surface Threshold Offset Overrun Length
08 151 ft / 46 m 6,353 ft / 1,936 m 104.61° 88.62° Asphalt 0 ft / 0 m 0 ft / 0 m
13 49 ft / 15 m 3,244 ft / 989 m 147.64° 131.65° Asphalt 0 ft / 0 m 0 ft / 0 m
26 151 ft / 46 m 6,353 ft / 1,936 m 284.63° 268.64° Asphalt 1,355 ft / 413 m 0 ft / 0 m
31 49 ft / 15 m 3,244 ft / 989 m 327.64° 311.65° Asphalt 0 ft / 0 m 0 ft / 0 m

KNUW

Details ICAO KNUW (NUW)
Name WHIDBEY ISLAND NAS
Region United States
Timezone America/Los_Angeles (UTC-7.0)
Stats Elevation 47 ft / 14 m (AMSL)
Location 48.351803° -122.655907°
Runways 2
Magnetic Variation 15.901° E

METAR

KNUW 242156Z 26007KT 10SM FEW021 SCT040 SCT220 16/10 A3012 RMK AO2 SLP199 T01610100 $

Decode

TAF

TAF KNUW 2415/2515 25010G16KT 9999 FEW010 BKN020 BKN050 BKN250 QNH3002INS TEMPO 2415/2418 23007KT 9999 VCFG SCT007 BKN015 OVC040 FM242000 25009KT 9999 SCT025 BKN035 BKN120 BKN250 QNH3004INS TEMPO 2420/2422 VRB06KT 9999 SCT025 BKN040 BKN140 BECMG 2422/2500 26008G15KT 9999 SCT040 SCT080 QNH3000INS TEMPO 2511/2515 22006KT 4800 BR VCFG BKN010 T11/2413Z T17/2423Z FS30004

Decode

Destination Runways

ID Width Length Bearing (true) Bearing (mag) Surface Threshold Offset Overrun Length
07 200 ft / 61 m 7,977 ft / 2,432 m 86.95° 71.05° Concrete 0 ft / 0 m 1,000 ft / 305 m
13 200 ft / 61 m 7,999 ft / 2,438 m 154.71° 138.81° Concrete 0 ft / 0 m 1,000 ft / 305 m
25 200 ft / 61 m 7,977 ft / 2,432 m 266.97° 251.07° Concrete 0 ft / 0 m 1,000 ft / 305 m
31 200 ft / 61 m 7,999 ft / 2,438 m 334.72° 318.82° Concrete 0 ft / 0 m 1,000 ft / 305 m

Approach Navaids

Runway Type Ident Frequency Range Bearing (true) Bearing (mag) Slope Elevation
13 Localiser INUW 110.10 MHz 18 nm / 33 km 154.72° 138.82° - 47 ft / 14 m (AMSL)
13 Glidescope INUW 110.10 MHz 10 nm / 19 km 154.71° 138.81° 3.00° 47 ft / 14 m (AMSL)